EZY78QW LFPG-EGGW
Flight info
| Callsign | EZY78QW |
|---|---|
| Flight time | N/A |
| Altitude | 24000 |
| Route | OPALE DCT KESAX DCT KUNAV Y8 BANVA M733 UNDUG |
| Aircraft | A319/M-SDE3FGHIRWY/LB1 |
Departure
| Time | 2026-04-30 10:33 |
|---|---|
| Airport | Charles de Gaulle International Airport (LFPG) |
Arrival
| Time | N/A |
|---|---|
| Airport | London Luton Airport (EGGW) |
| Time | Latitude | Longitude | Altitude | Speed | Heading |
|---|---|---|---|---|---|
| 2026-04-30 10:10 | 49.00505 | 2.56032 | 355 ft | 0 kts | 171° |
| 2026-04-30 10:21 | 49.00512 | 2.56031 | 354 ft | 4 kts | 172° |
| 2026-04-30 10:21 | 49.00539 | 2.56028 | 354 ft | 4 kts | 186° |
| 2026-04-30 10:21 | 49.00564 | 2.56038 | 362 ft | 4 kts | 211° |
| 2026-04-30 10:22 | 49.00580 | 2.56061 | 362 ft | 1 kts | 251° |
| 2026-04-30 10:22 | 49.00580 | 2.56062 | 362 ft | 0 kts | 251° |
| 2026-04-30 10:25 | 49.00579 | 2.56058 | 361 ft | 1 kts | 251° |
| 2026-04-30 10:25 | 49.00576 | 2.56044 | 358 ft | 2 kts | 251° |
| 2026-04-30 10:25 | 49.00568 | 2.56006 | 354 ft | 6 kts | 256° |
| 2026-04-30 10:26 | 49.00567 | 2.55923 | 358 ft | 9 kts | 274° |
| 2026-04-30 10:26 | 49.00567 | 2.55823 | 359 ft | 9 kts | 263° |
| 2026-04-30 10:26 | 49.00561 | 2.55729 | 355 ft | 9 kts | 266° |
| 2026-04-30 10:26 | 49.00556 | 2.55620 | 354 ft | 11 kts | 266° |
| 2026-04-30 10:27 | 49.00532 | 2.55514 | 362 ft | 11 kts | 228° |
| 2026-04-30 10:27 | 49.00462 | 2.55472 | 354 ft | 11 kts | 184° |
| 2026-04-30 10:27 | 49.00385 | 2.55498 | 354 ft | 12 kts | 165° |
| 2026-04-30 10:27 | 49.00304 | 2.55532 | 354 ft | 12 kts | 164° |
| 2026-04-30 10:28 | 49.00218 | 2.55569 | 358 ft | 13 kts | 163° |
| 2026-04-30 10:28 | 49.00128 | 2.55610 | 357 ft | 14 kts | 163° |
| 2026-04-30 10:28 | 49.00032 | 2.55650 | 357 ft | 15 kts | 165° |
| 2026-04-30 10:28 | 48.99944 | 2.55710 | 361 ft | 13 kts | 135° |
| 2026-04-30 10:29 | 48.99874 | 2.55794 | 357 ft | 13 kts | 173° |
| 2026-04-30 10:29 | 48.99784 | 2.55802 | 363 ft | 13 kts | 176° |
| 2026-04-30 10:29 | 48.99708 | 2.55812 | 354 ft | 9 kts | 175° |
| 2026-04-30 10:29 | 48.99696 | 2.55814 | 354 ft | 0 kts | 175° |
| 2026-04-30 10:30 | 48.99691 | 2.55815 | 354 ft | 2 kts | 175° |
| 2026-04-30 10:30 | 48.99659 | 2.55819 | 357 ft | 7 kts | 175° |
| 2026-04-30 10:30 | 48.99601 | 2.55849 | 354 ft | 10 kts | 122° |
| 2026-04-30 10:31 | 48.99606 | 2.55940 | 354 ft | 6 kts | 84° |
| 2026-04-30 10:31 | 48.99607 | 2.55952 | 354 ft | 0 kts | 84° |
| 2026-04-30 10:31 | 48.99607 | 2.55959 | 354 ft | 1 kts | 84° |
| 2026-04-30 10:31 | 48.99607 | 2.55962 | 354 ft | 0 kts | 84° |
| 2026-04-30 10:32 | 48.99608 | 2.55972 | 360 ft | 3 kts | 84° |
| 2026-04-30 10:32 | 48.99621 | 2.56215 | 357 ft | 57 kts | 85° |
| 2026-04-30 10:32 | 48.99671 | 2.57185 | 352 ft | 125 kts | 85° |
| 2026-04-30 10:32 | 48.99752 | 2.58764 | 451 ft | 166 kts | 86° |
| 2026-04-30 10:33 | 48.99844 | 2.60529 | 1091 ft | 168 kts | 86° |
| 2026-04-30 10:33 | 48.99992 | 2.62313 | 1771 ft | 177 kts | 83° |
| 2026-04-30 10:33 | 49.00188 | 2.64284 | 2126 ft | 201 kts | 83° |
| 2026-04-30 10:33 | 49.00445 | 2.66522 | 2684 ft | 227 kts | 83° |
| 2026-04-30 10:34 | 49.00742 | 2.68966 | 3513 ft | 240 kts | 83° |
| 2026-04-30 10:34 | 49.01035 | 2.71499 | 4493 ft | 245 kts | 83° |
| 2026-04-30 10:34 | 49.01252 | 2.74107 | 5459 ft | 251 kts | 87° |
| 2026-04-30 10:34 | 49.01374 | 2.76786 | 6406 ft | 256 kts | 88° |
| 2026-04-30 10:35 | 49.01488 | 2.79517 | 7327 ft | 260 kts | 88° |
| 2026-04-30 10:35 | 49.01607 | 2.82267 | 8286 ft | 263 kts | 86° |
| 2026-04-30 10:35 | 49.02146 | 2.84976 | 9092 ft | 276 kts | 62° |
| 2026-04-30 10:35 | 49.03483 | 2.87130 | 9964 ft | 289 kts | 37° |
| 2026-04-30 10:36 | 49.05418 | 2.88115 | 10753 ft | 303 kts | 6° |
| 2026-04-30 10:36 | 49.06856 | 2.87951 | 10999 ft | 324 kts | 347° |
| 2026-04-30 10:36 | 49.09656 | 2.85765 | 11340 ft | 359 kts | 327° |
| 2026-04-30 10:36 | 49.11679 | 2.83435 | 11930 ft | 369 kts | 322° |
| 2026-04-30 10:37 | 49.13654 | 2.80897 | 12694 ft | 374 kts | 321° |
| 2026-04-30 10:37 | 49.14997 | 2.79133 | 13133 ft | 379 kts | 321° |
| 2026-04-30 10:37 | 49.17016 | 2.76515 | 13886 ft | 382 kts | 321° |
| 2026-04-30 10:37 | 49.19760 | 2.73096 | 14825 ft | 386 kts | 322° |
| 2026-04-30 10:38 | 49.21158 | 2.71407 | 15258 ft | 389 kts | 324° |
| 2026-04-30 10:38 | 49.23310 | 2.68858 | 15923 ft | 392 kts | 324° |
| 2026-04-30 10:38 | 49.25483 | 2.66314 | 16600 ft | 395 kts | 324° |
| 2026-04-30 10:38 | 49.27680 | 2.63739 | 17218 ft | 400 kts | 323° |
| 2026-04-30 10:39 | 49.29899 | 2.61129 | 17847 ft | 403 kts | 323° |
| 2026-04-30 10:39 | 49.32130 | 2.58487 | 18499 ft | 408 kts | 323° |
| 2026-04-30 10:39 | 49.34381 | 2.55809 | 19045 ft | 411 kts | 323° |
| 2026-04-30 10:39 | 49.36651 | 2.53100 | 19625 ft | 415 kts | 323° |
| 2026-04-30 10:40 | 49.38935 | 2.50369 | 20203 ft | 418 kts | 323° |
| 2026-04-30 10:40 | 49.41237 | 2.47614 | 20773 ft | 422 kts | 324° |
| 2026-04-30 10:40 | 49.43560 | 2.44826 | 21332 ft | 425 kts | 324° |
| 2026-04-30 10:40 | 49.45901 | 2.42015 | 21880 ft | 429 kts | 324° |
| 2026-04-30 10:41 | 49.48260 | 2.39179 | 22410 ft | 432 kts | 324° |
| 2026-04-30 10:41 | 49.50640 | 2.36318 | 22902 ft | 436 kts | 324° |
| 2026-04-30 10:41 | 49.53036 | 2.33433 | 23434 ft | 439 kts | 324° |
| 2026-04-30 10:41 | 49.55455 | 2.30523 | 23910 ft | 442 kts | 324° |
| 2026-04-30 10:42 | 49.57888 | 2.27589 | 24149 ft | 446 kts | 324° |
| 2026-04-30 10:42 | 49.60332 | 2.24641 | 24211 ft | 458 kts | 324° |
| 2026-04-30 10:42 | 49.62880 | 2.21566 | 24217 ft | 471 kts | 324° |
| 2026-04-30 10:42 | 49.65493 | 2.18407 | 24216 ft | 483 kts | 324° |
| 2026-04-30 10:43 | 49.68155 | 2.15181 | 24212 ft | 489 kts | 324° |
| 2026-04-30 10:43 | 49.70840 | 2.11914 | 24212 ft | 494 kts | 324° |
| 2026-04-30 10:43 | 49.73548 | 2.08616 | 24207 ft | 495 kts | 323° |
| 2026-04-30 10:43 | 49.76250 | 2.05321 | 24209 ft | 495 kts | 323° |
| 2026-04-30 10:44 | 49.78953 | 2.02020 | 24210 ft | 495 kts | 323° |
| 2026-04-30 10:44 | 49.81659 | 1.98714 | 24204 ft | 495 kts | 323° |
| 2026-04-30 10:44 | 49.84361 | 1.95409 | 24203 ft | 495 kts | 323° |
| 2026-04-30 10:44 | 49.87061 | 1.92101 | 24212 ft | 495 kts | 323° |
| 2026-04-30 10:45 | 49.89759 | 1.88789 | 24212 ft | 495 kts | 323° |
| 2026-04-30 10:45 | 49.92461 | 1.85469 | 24210 ft | 495 kts | 323° |
| 2026-04-30 10:45 | 49.95164 | 1.82142 | 24208 ft | 495 kts | 323° |
| 2026-04-30 10:45 | 49.97862 | 1.78821 | 24200 ft | 495 kts | 323° |
| 2026-04-30 10:46 | 50.00556 | 1.75494 | 24200 ft | 495 kts | 323° |
| 2026-04-30 10:46 | 50.03252 | 1.72161 | 24197 ft | 495 kts | 323° |
| 2026-04-30 10:46 | 50.05952 | 1.68824 | 24199 ft | 496 kts | 323° |
| 2026-04-30 10:46 | 50.08638 | 1.65451 | 24198 ft | 496 kts | 322° |
| 2026-04-30 10:47 | 50.11274 | 1.61986 | 24190 ft | 496 kts | 321° |
| 2026-04-30 10:47 | 50.13845 | 1.58483 | 24192 ft | 497 kts | 320° |
| 2026-04-30 10:47 | 50.16423 | 1.54899 | 24202 ft | 497 kts | 320° |
| 2026-04-30 10:47 | 50.18997 | 1.51302 | 24203 ft | 497 kts | 320° |
| 2026-04-30 10:48 | 50.21580 | 1.47714 | 24205 ft | 497 kts | 320° |
| 2026-04-30 10:48 | 50.24178 | 1.44136 | 24214 ft | 497 kts | 320° |
| 2026-04-30 10:48 | 50.26777 | 1.40582 | 24219 ft | 497 kts | 320° |
| 2026-04-30 10:48 | 50.29381 | 1.37036 | 24234 ft | 497 kts | 320° |
| 2026-04-30 10:49 | 50.31984 | 1.33492 | 24225 ft | 497 kts | 320° |
| 2026-04-30 10:49 | 50.34589 | 1.29934 | 24224 ft | 497 kts | 320° |
| 2026-04-30 10:49 | 50.37194 | 1.26359 | 24221 ft | 497 kts | 320° |